Altamont, South Dakota
Current Conditions -  °F | °C
As of 7:53 PM on Sunday 21 Dec 2014 (Local Time) from KCNB Reporting Station
Haze Haze  
Wind Chill: 32°   Ceiling: 800
Heat Index: 37°   Visibility: 5mi
Dew Point: 36°   Wind: 7mph
Humidity: 94%   Direction: 140°SE
Pressure: 29.58"   Gusts: NA
Location:  44.7895°N, 96.7201°W
Report Text: KCNB 220153Z AUTO 14006KT 5SM BR OVC008 03/02 A2958 RMK AO2 T00300021
Loading
Personal Weather Stations






























Interactive Weather Map New forecast layout! Learn more

10-Day Weather Forecast

Advertisements
Track Severe Weather on mobile